sensor_id;sensor_type;location;lat;lon;timestamp;temperature;humidity
21799;DHT22;24973;47.178;15.316;2022-07-29T00:00:38;18.60;99.90
21799;DHT22;24973;47.178;15.316;2022-07-29T00:03:26;18.60;99.90
21799;DHT22;24973;47.178;15.316;2022-07-29T00:06:15;18.60;99.90
21799;DHT22;24973;47.178;15.316;2022-07-29T00:09:04;18.50;99.90
21799;DHT22;24973;47.178;15.316;2022-07-29T00:11:56;18.40;99.90
21799;DHT22;24973;47.178;15.316;2022-07-29T00:14:47;18.40;99.90
21799;DHT22;24973;47.178;15.316;2022-07-29T00:17:35;18.30;99.90
21799;DHT22;24973;47.178;15.316;2022-07-29T00:20:24;18.40;99.90
21799;DHT22;24973;47.178;15.316;2022-07-29T00:23:13;18.40;99.90
21799;DHT22;24973;47.178;15.316;2022-07-29T00:26:02;18.40;99.90
21799;DHT22;24973;47.178;15.316;2022-07-29T00:28:52;18.50;99.90
21799;DHT22;24973;47.178;15.316;2022-07-29T00:31:48;18.50;99.90
21799;DHT22;24973;47.178;15.316;2022-07-29T00:34:37;18.50;99.90
21799;DHT22;24973;47.178;15.316;2022-07-29T00:37:43;18.40;99.90
21799;DHT22;24973;47.178;15.316;2022-07-29T00:40:31;18.50;99.90
21799;DHT22;24973;47.178;15.316;2022-07-29T00:43:20;18.50;99.90
21799;DHT22;24973;47.178;15.316;2022-07-29T00:46:11;18.40;99.90
21799;DHT22;24973;47.178;15.316;2022-07-29T00:48:59;18.40;99.90
21799;DHT22;24973;47.178;15.316;2022-07-29T00:51:49;18.50;99.90
21799;DHT22;24973;47.178;15.316;2022-07-29T00:54:39;18.50;99.90
21799;DHT22;24973;47.178;15.316;2022-07-29T00:57:28;18.50;99.90
21799;DHT22;24973;47.178;15.316;2022-07-29T01:00:18;18.50;99.90
21799;DHT22;24973;47.178;15.316;2022-07-29T01:03:09;18.40;99.90
21799;DHT22;24973;47.178;15.316;2022-07-29T01:05:58;18.40;99.90
21799;DHT22;24973;47.178;15.316;2022-07-29T01:08:48;18.40;99.90
21799;DHT22;24973;47.178;15.316;2022-07-29T01:11:38;18.40;99.90
21799;DHT22;24973;47.178;15.316;2022-07-29T01:14:28;18.40;99.90
21799;DHT22;24973;47.178;15.316;2022-07-29T01:17:21;18.50;99.90
21799;DHT22;24973;47.178;15.316;2022-07-29T01:20:20;18.40;99.90
21799;DHT22;24973;47.178;15.316;2022-07-29T01:23:47;18.40;99.90
21799;DHT22;24973;47.178;15.316;2022-07-29T01:26:47;18.40;99.90
21799;DHT22;24973;47.178;15.316;2022-07-29T01:29:42;18.40;99.90
21799;DHT22;24973;47.178;15.316;2022-07-29T01:32:36;18.40;99.90
21799;DHT22;24973;47.178;15.316;2022-07-29T01:35:30;18.50;99.90
21799;DHT22;24973;47.178;15.316;2022-07-29T01:38:24;18.40;99.90
21799;DHT22;24973;47.178;15.316;2022-07-29T01:41:17;18.50;99.90
21799;DHT22;24973;47.178;15.316;2022-07-29T01:44:13;18.40;99.90
21799;DHT22;24973;47.178;15.316;2022-07-29T01:47:11;18.40;99.90
21799;DHT22;24973;47.178;15.316;2022-07-29T01:50:06;18.20;99.90
21799;DHT22;24973;47.178;15.316;2022-07-29T01:52:59;18.20;99.90
21799;DHT22;24973;47.178;15.316;2022-07-29T01:55:50;18.20;99.90
21799;DHT22;24973;47.178;15.316;2022-07-29T01:58:40;18.10;99.90
21799;DHT22;24973;47.178;15.316;2022-07-29T02:01:31;18.20;99.90
21799;DHT22;24973;47.178;15.316;2022-07-29T02:04:23;18.20;99.90
21799;DHT22;24973;47.178;15.316;2022-07-29T02:07:15;18.30;99.90
21799;DHT22;24973;47.178;15.316;2022-07-29T02:10:07;18.30;99.90
21799;DHT22;24973;47.178;15.316;2022-07-29T02:12:58;18.30;99.90
21799;DHT22;24973;47.178;15.316;2022-07-29T02:15:49;18.30;99.90
21799;DHT22;24973;47.178;15.316;2022-07-29T02:18:41;18.20;99.90
21799;DHT22;24973;47.178;15.316;2022-07-29T02:21:33;18.10;99.90
21799;DHT22;24973;47.178;15.316;2022-07-29T02:24:24;18.10;99.90
21799;DHT22;24973;47.178;15.316;2022-07-29T02:27:14;18.10;99.90
21799;DHT22;24973;47.178;15.316;2022-07-29T02:30:05;18.10;99.90
21799;DHT22;24973;47.178;15.316;2022-07-29T02:32:55;18.00;99.90
21799;DHT22;24973;47.178;15.316;2022-07-29T02:35:46;18.00;99.90
21799;DHT22;24973;47.178;15.316;2022-07-29T02:38:37;17.90;99.90
21799;DHT22;24973;47.178;15.316;2022-07-29T02:41:42;17.90;99.90
21799;DHT22;24973;47.178;15.316;2022-07-29T02:44:33;17.90;99.90
21799;DHT22;24973;47.178;15.316;2022-07-29T02:47:26;17.80;99.90
21799;DHT22;24973;47.178;15.316;2022-07-29T02:50:22;17.80;99.90
21799;DHT22;24973;47.178;15.316;2022-07-29T02:53:19;17.80;99.90
21799;DHT22;24973;47.178;15.316;2022-07-29T02:56:14;17.80;99.90
21799;DHT22;24973;47.178;15.316;2022-07-29T02:59:10;17.70;99.90
21799;DHT22;24973;47.178;15.316;2022-07-29T03:01:59;17.60;99.90
21799;DHT22;24973;47.178;15.316;2022-07-29T03:04:49;17.50;99.90
21799;DHT22;24973;47.178;15.316;2022-07-29T03:07:40;17.50;99.90
21799;DHT22;24973;47.178;15.316;2022-07-29T03:10:31;17.40;99.90
21799;DHT22;24973;47.178;15.316;2022-07-29T03:13:22;17.20;99.90
21799;DHT22;24973;47.178;15.316;2022-07-29T03:16:12;17.10;99.90
21799;DHT22;24973;47.178;15.316;2022-07-29T03:19:01;17.00;99.90
21799;DHT22;24973;47.178;15.316;2022-07-29T03:21:51;17.00;99.90
21799;DHT22;24973;47.178;15.316;2022-07-29T03:24:40;16.90;99.90
21799;DHT22;24973;47.178;15.316;2022-07-29T03:27:29;17.00;99.90
21799;DHT22;24973;47.178;15.316;2022-07-29T03:30:19;17.00;99.90
21799;DHT22;24973;47.178;15.316;2022-07-29T03:33:08;17.00;99.90
21799;DHT22;24973;47.178;15.316;2022-07-29T03:35:57;17.00;99.90
21799;DHT22;24973;47.178;15.316;2022-07-29T03:38:47;16.90;99.90
21799;DHT22;24973;47.178;15.316;2022-07-29T03:41:37;16.90;99.90
21799;DHT22;24973;47.178;15.316;2022-07-29T03:44:29;16.90;99.90
21799;DHT22;24973;47.178;15.316;2022-07-29T03:47:23;16.80;99.90
21799;DHT22;24973;47.178;15.316;2022-07-29T03:50:15;16.70;99.90
21799;DHT22;24973;47.178;15.316;2022-07-29T03:53:06;16.60;99.90
21799;DHT22;24973;47.178;15.316;2022-07-29T03:55:59;16.60;99.90
21799;DHT22;24973;47.178;15.316;2022-07-29T03:58:49;16.60;99.90
21799;DHT22;24973;47.178;15.316;2022-07-29T04:01:39;16.60;99.90
21799;DHT22;24973;47.178;15.316;2022-07-29T04:04:32;16.50;99.90
21799;DHT22;24973;47.178;15.316;2022-07-29T04:07:21;16.40;99.90
21799;DHT22;24973;47.178;15.316;2022-07-29T04:10:10;16.40;99.90
21799;DHT22;24973;47.178;15.316;2022-07-29T04:12:59;16.30;99.90
21799;DHT22;24973;47.178;15.316;2022-07-29T04:15:48;16.40;99.90
21799;DHT22;24973;47.178;15.316;2022-07-29T04:18:36;16.40;99.90
21799;DHT22;24973;47.178;15.316;2022-07-29T04:21:26;16.50;99.90
21799;DHT22;24973;47.178;15.316;2022-07-29T04:24:15;16.40;99.90
21799;DHT22;24973;47.178;15.316;2022-07-29T04:27:04;16.40;99.90
21799;DHT22;24973;47.178;15.316;2022-07-29T04:29:53;16.50;99.90
21799;DHT22;24973;47.178;15.316;2022-07-29T04:32:41;16.50;99.90
21799;DHT22;24973;47.178;15.316;2022-07-29T04:35:33;16.50;99.90
21799;DHT22;24973;47.178;15.316;2022-07-29T04:38:24;16.50;99.90
21799;DHT22;24973;47.178;15.316;2022-07-29T04:41:13;16.40;99.90
21799;DHT22;24973;47.178;15.316;2022-07-29T04:44:02;16.40;99.90
21799;DHT22;24973;47.178;15.316;2022-07-29T04:46:52;16.50;99.90
21799;DHT22;24973;47.178;15.316;2022-07-29T04:49:41;16.70;99.90
21799;DHT22;24973;47.178;15.316;2022-07-29T04:52:29;16.70;99.90
21799;DHT22;24973;47.178;15.316;2022-07-29T04:55:23;16.80;99.90
21799;DHT22;24973;47.178;15.316;2022-07-29T04:58:12;16.90;99.90
21799;DHT22;24973;47.178;15.316;2022-07-29T05:01:03;17.00;99.90
21799;DHT22;24973;47.178;15.316;2022-07-29T05:04:13;17.00;99.90
21799;DHT22;24973;47.178;15.316;2022-07-29T05:12:52;17.10;99.90
21799;DHT22;24973;47.178;15.316;2022-07-29T05:18:30;17.30;99.90
21799;DHT22;24973;47.178;15.316;2022-07-29T05:21:19;17.40;99.90
21799;DHT22;24973;47.178;15.316;2022-07-29T05:24:08;17.60;99.90
21799;DHT22;24973;47.178;15.316;2022-07-29T05:29:48;18.00;99.90
21799;DHT22;24973;47.178;15.316;2022-07-29T05:32:37;18.00;99.90
21799;DHT22;24973;47.178;15.316;2022-07-29T05:35:26;18.10;99.90
21799;DHT22;24973;47.178;15.316;2022-07-29T05:38:15;18.20;99.90
21799;DHT22;24973;47.178;15.316;2022-07-29T05:41:04;18.30;99.90
21799;DHT22;24973;47.178;15.316;2022-07-29T05:43:53;18.40;99.90
21799;DHT22;24973;47.178;15.316;2022-07-29T05:46:43;18.40;99.90
21799;DHT22;24973;47.178;15.316;2022-07-29T05:49:32;18.60;99.90
21799;DHT22;24973;47.178;15.316;2022-07-29T05:52:21;18.70;99.90
21799;DHT22;24973;47.178;15.316;2022-07-29T05:55:10;18.80;99.90
21799;DHT22;24973;47.178;15.316;2022-07-29T05:57:59;19.00;99.90
21799;DHT22;24973;47.178;15.316;2022-07-29T06:00:48;19.20;99.90
21799;DHT22;24973;47.178;15.316;2022-07-29T06:03:38;19.50;99.90
21799;DHT22;24973;47.178;15.316;2022-07-29T06:06:28;19.70;99.90
21799;DHT22;24973;47.178;15.316;2022-07-29T06:09:17;19.90;99.90
21799;DHT22;24973;47.178;15.316;2022-07-29T06:12:06;20.10;99.90
21799;DHT22;24973;47.178;15.316;2022-07-29T06:14:55;20.20;99.90
21799;DHT22;24973;47.178;15.316;2022-07-29T06:17:44;20.30;99.90
21799;DHT22;24973;47.178;15.316;2022-07-29T06:20:34;20.50;99.90
21799;DHT22;24973;47.178;15.316;2022-07-29T06:23:23;20.70;99.90
21799;DHT22;24973;47.178;15.316;2022-07-29T06:26:12;20.80;99.90
21799;DHT22;24973;47.178;15.316;2022-07-29T06:29:01;21.00;99.90
21799;DHT22;24973;47.178;15.316;2022-07-29T06:31:49;21.10;99.90
21799;DHT22;24973;47.178;15.316;2022-07-29T06:37:29;21.40;99.90
21799;DHT22;24973;47.178;15.316;2022-07-29T06:40:18;21.60;99.90
21799;DHT22;24973;47.178;15.316;2022-07-29T06:43:24;21.80;99.90
21799;DHT22;24973;47.178;15.316;2022-07-29T06:46:15;22.00;99.90
21799;DHT22;24973;47.178;15.316;2022-07-29T06:49:08;22.10;99.90
21799;DHT22;24973;47.178;15.316;2022-07-29T06:51:57;22.30;99.90
21799;DHT22;24973;47.178;15.316;2022-07-29T06:54:55;22.50;99.90
21799;DHT22;24973;47.178;15.316;2022-07-29T06:57:44;23.50;99.90
21799;DHT22;24973;47.178;15.316;2022-07-29T07:01:04;22.80;99.90
21799;DHT22;24973;47.178;15.316;2022-07-29T07:12:39;23.30;99.90
21799;DHT22;24973;47.178;15.316;2022-07-29T07:15:28;23.30;99.90
21799;DHT22;24973;47.178;15.316;2022-07-29T07:18:18;23.50;99.90
21799;DHT22;24973;47.178;15.316;2022-07-29T07:21:07;23.60;99.90
21799;DHT22;24973;47.178;15.316;2022-07-29T07:23:56;23.80;99.90
21799;DHT22;24973;47.178;15.316;2022-07-29T07:26:45;24.00;99.90
21799;DHT22;24973;47.178;15.316;2022-07-29T07:29:36;24.00;99.90
21799;DHT22;24973;47.178;15.316;2022-07-29T07:32:28;24.20;99.90
21799;DHT22;24973;47.178;15.316;2022-07-29T07:38:07;24.50;99.90
21799;DHT22;24973;47.178;15.316;2022-07-29T07:40:55;24.70;99.90
21799;DHT22;24973;47.178;15.316;2022-07-29T07:43:45;24.80;99.90
21799;DHT22;24973;47.178;15.316;2022-07-29T07:46:35;24.90;99.90
21799;DHT22;24973;47.178;15.316;2022-07-29T07:49:24;25.10;99.90
21799;DHT22;24973;47.178;15.316;2022-07-29T07:53:04;25.20;99.90
21799;DHT22;24973;47.178;15.316;2022-07-29T07:55:53;25.40;99.90
21799;DHT22;24973;47.178;15.316;2022-07-29T07:58:58;25.60;99.90
21799;DHT22;24973;47.178;15.316;2022-07-29T08:01:46;25.80;99.90
21799;DHT22;24973;47.178;15.316;2022-07-29T08:04:35;25.90;99.90
21799;DHT22;24973;47.178;15.316;2022-07-29T08:07:24;26.10;99.90
21799;DHT22;24973;47.178;15.316;2022-07-29T08:10:15;26.30;99.90
21799;DHT22;24973;47.178;15.316;2022-07-29T08:13:26;26.40;99.90
21799;DHT22;24973;47.178;15.316;2022-07-29T08:16:17;26.50;99.90
21799;DHT22;24973;47.178;15.316;2022-07-29T08:19:06;26.50;99.90
21799;DHT22;24973;47.178;15.316;2022-07-29T08:21:54;26.50;99.90
21799;DHT22;24973;47.178;15.316;2022-07-29T08:24:43;26.60;99.90
21799;DHT22;24973;47.178;15.316;2022-07-29T08:27:40;26.80;99.90
21799;DHT22;24973;47.178;15.316;2022-07-29T08:30:30;27.00;99.90
21799;DHT22;24973;47.178;15.316;2022-07-29T08:33:19;27.30;99.90
21799;DHT22;24973;47.178;15.316;2022-07-29T08:36:08;27.50;99.90
21799;DHT22;24973;47.178;15.316;2022-07-29T08:38:57;27.70;99.90
21799;DHT22;24973;47.178;15.316;2022-07-29T08:41:46;27.70;98.80
21799;DHT22;24973;47.178;15.316;2022-07-29T08:44:37;27.40;98.40
21799;DHT22;24973;47.178;15.316;2022-07-29T08:47:27;27.50;99.10
21799;DHT22;24973;47.178;15.316;2022-07-29T08:50:16;27.60;99.30
21799;DHT22;24973;47.178;15.316;2022-07-29T08:53:05;27.80;98.70
21799;DHT22;24973;47.178;15.316;2022-07-29T08:55:55;27.70;97.20
21799;DHT22;24973;47.178;15.316;2022-07-29T08:58:46;28.20;97.70
21799;DHT22;24973;47.178;15.316;2022-07-29T09:01:37;27.90;97.50
21799;DHT22;24973;47.178;15.316;2022-07-29T09:04:30;28.10;96.40
21799;DHT22;24973;47.178;15.316;2022-07-29T09:07:22;28.10;94.60
21799;DHT22;24973;47.178;15.316;2022-07-29T09:10:12;28.00;95.10
21799;DHT22;24973;47.178;15.316;2022-07-29T09:13:02;28.00;95.00
21799;DHT22;24973;47.178;15.316;2022-07-29T09:15:51;28.10;93.60
21799;DHT22;24973;47.178;15.316;2022-07-29T09:18:42;28.10;93.90
21799;DHT22;24973;47.178;15.316;2022-07-29T09:21:40;28.10;93.20
21799;DHT22;24973;47.178;15.316;2022-07-29T09:24:52;28.10;92.70
21799;DHT22;24973;47.178;15.316;2022-07-29T09:27:42;28.00;92.00
21799;DHT22;24973;47.178;15.316;2022-07-29T09:30:50;27.90;93.50
21799;DHT22;24973;47.178;15.316;2022-07-29T09:33:40;27.70;93.90
21799;DHT22;24973;47.178;15.316;2022-07-29T09:36:29;27.60;95.20
21799;DHT22;24973;47.178;15.316;2022-07-29T09:39:27;27.60;95.80
21799;DHT22;24973;47.178;15.316;2022-07-29T09:42:27;27.60;95.20
21799;DHT22;24973;47.178;15.316;2022-07-29T09:45:27;27.60;94.90
21799;DHT22;24973;47.178;15.316;2022-07-29T09:48:19;27.60;94.90
21799;DHT22;24973;47.178;15.316;2022-07-29T09:51:18;27.60;94.80
21799;DHT22;24973;47.178;15.316;2022-07-29T09:54:23;27.60;94.90
21799;DHT22;24973;47.178;15.316;2022-07-29T09:57:22;27.50;94.60
21799;DHT22;24973;47.178;15.316;2022-07-29T10:00:17;27.50;94.80
21799;DHT22;24973;47.178;15.316;2022-07-29T10:03:07;27.10;94.90
21799;DHT22;24973;47.178;15.316;2022-07-29T10:06:06;26.80;95.20
21799;DHT22;24973;47.178;15.316;2022-07-29T10:09:09;26.80;96.10
21799;DHT22;24973;47.178;15.316;2022-07-29T10:12:06;26.70;95.60
21799;DHT22;24973;47.178;15.316;2022-07-29T10:14:58;26.50;95.90
21799;DHT22;24973;47.178;15.316;2022-07-29T10:17:47;26.50;97.00
21799;DHT22;24973;47.178;15.316;2022-07-29T10:20:36;26.50;95.30
21799;DHT22;24973;47.178;15.316;2022-07-29T10:23:26;26.30;94.30
21799;DHT22;24973;47.178;15.316;2022-07-29T10:26:17;26.20;95.60
21799;DHT22;24973;47.178;15.316;2022-07-29T10:29:07;26.20;96.90
21799;DHT22;24973;47.178;15.316;2022-07-29T10:35:21;26.20;96.70
21799;DHT22;24973;47.178;15.316;2022-07-29T10:38:34;26.10;98.40
21799;DHT22;24973;47.178;15.316;2022-07-29T10:45:02;26.10;99.90
21799;DHT22;24973;47.178;15.316;2022-07-29T10:48:02;26.30;99.90
21799;DHT22;24973;47.178;15.316;2022-07-29T10:50:54;26.50;99.90
21799;DHT22;24973;47.178;15.316;2022-07-29T10:53:48;26.70;99.90
21799;DHT22;24973;47.178;15.316;2022-07-29T10:56:38;26.80;99.00
21799;DHT22;24973;47.178;15.316;2022-07-29T10:59:28;26.70;98.50
21799;DHT22;24973;47.178;15.316;2022-07-29T11:02:45;26.80;98.60
21799;DHT22;24973;47.178;15.316;2022-07-29T11:05:52;27.00;98.00
21799;DHT22;24973;47.178;15.316;2022-07-29T11:08:42;27.50;98.00
21799;DHT22;24973;47.178;15.316;2022-07-29T11:11:32;28.00;96.90
21799;DHT22;24973;47.178;15.316;2022-07-29T11:18:08;29.60;97.00
21799;DHT22;24973;47.178;15.316;2022-07-29T11:20:57;30.60;95.00
21799;DHT22;24973;47.178;15.316;2022-07-29T11:23:46;30.90;92.20
21799;DHT22;24973;47.178;15.316;2022-07-29T11:26:35;31.50;90.60
21799;DHT22;24973;47.178;15.316;2022-07-29T11:29:24;31.90;83.50
21799;DHT22;24973;47.178;15.316;2022-07-29T11:32:16;32.30;83.60
21799;DHT22;24973;47.178;15.316;2022-07-29T11:35:15;32.70;82.20
21799;DHT22;24973;47.178;15.316;2022-07-29T11:38:25;32.90;80.30
21799;DHT22;24973;47.178;15.316;2022-07-29T11:41:22;32.90;76.20
21799;DHT22;24973;47.178;15.316;2022-07-29T11:44:12;32.90;78.10
21799;DHT22;24973;47.178;15.316;2022-07-29T11:47:02;32.80;71.50
21799;DHT22;24973;47.178;15.316;2022-07-29T11:49:54;32.50;71.80
21799;DHT22;24973;47.178;15.316;2022-07-29T11:52:46;32.20;71.20
21799;DHT22;24973;47.178;15.316;2022-07-29T11:55:37;32.00;73.20
21799;DHT22;24973;47.178;15.316;2022-07-29T11:58:27;32.00;72.70
21799;DHT22;24973;47.178;15.316;2022-07-29T12:01:17;31.90;72.00
21799;DHT22;24973;47.178;15.316;2022-07-29T12:04:08;31.60;73.00
21799;DHT22;24973;47.178;15.316;2022-07-29T12:06:58;31.50;73.70
21799;DHT22;24973;47.178;15.316;2022-07-29T12:09:49;31.40;74.40
21799;DHT22;24973;47.178;15.316;2022-07-29T12:12:39;31.20;72.90
21799;DHT22;24973;47.178;15.316;2022-07-29T12:15:28;30.70;72.40
21799;DHT22;24973;47.178;15.316;2022-07-29T12:18:18;30.20;72.50
21799;DHT22;24973;47.178;15.316;2022-07-29T12:21:08;29.40;75.60
21799;DHT22;24973;47.178;15.316;2022-07-29T12:23:58;29.00;77.60
21799;DHT22;24973;47.178;15.316;2022-07-29T12:26:51;28.80;76.90
21799;DHT22;24973;47.178;15.316;2022-07-29T12:29:41;28.50;79.30
21799;DHT22;24973;47.178;15.316;2022-07-29T12:32:33;28.20;78.30
21799;DHT22;24973;47.178;15.316;2022-07-29T12:35:23;28.00;79.80
21799;DHT22;24973;47.178;15.316;2022-07-29T12:38:13;27.90;79.80
21799;DHT22;24973;47.178;15.316;2022-07-29T12:41:03;27.80;81.30
21799;DHT22;24973;47.178;15.316;2022-07-29T12:43:53;27.60;80.50
21799;DHT22;24973;47.178;15.316;2022-07-29T12:46:42;27.50;82.10
21799;DHT22;24973;47.178;15.316;2022-07-29T12:49:33;27.40;82.80
21799;DHT22;24973;47.178;15.316;2022-07-29T12:52:26;27.40;82.00
21799;DHT22;24973;47.178;15.316;2022-07-29T12:55:43;27.70;82.50
21799;DHT22;24973;47.178;15.316;2022-07-29T12:58:38;27.40;80.60
21799;DHT22;24973;47.178;15.316;2022-07-29T13:01:36;27.50;79.50
21799;DHT22;24973;47.178;15.316;2022-07-29T13:04:26;27.60;82.00
21799;DHT22;24973;47.178;15.316;2022-07-29T13:07:24;27.90;83.30
21799;DHT22;24973;47.178;15.316;2022-07-29T13:10:15;28.00;80.80
21799;DHT22;24973;47.178;15.316;2022-07-29T13:13:06;28.00;78.90
21799;DHT22;24973;47.178;15.316;2022-07-29T13:16:07;27.90;78.70
21799;DHT22;24973;47.178;15.316;2022-07-29T13:19:09;27.80;79.40
21799;DHT22;24973;47.178;15.316;2022-07-29T13:22:01;27.80;80.00
21799;DHT22;24973;47.178;15.316;2022-07-29T13:24:51;27.80;81.00
21799;DHT22;24973;47.178;15.316;2022-07-29T13:27:41;27.70;81.40
21799;DHT22;24973;47.178;15.316;2022-07-29T13:30:32;27.80;83.30
21799;DHT22;24973;47.178;15.316;2022-07-29T13:33:23;27.70;82.80
21799;DHT22;24973;47.178;15.316;2022-07-29T13:36:12;27.60;82.20
21799;DHT22;24973;47.178;15.316;2022-07-29T13:39:00;27.50;84.50
21799;DHT22;24973;47.178;15.316;2022-07-29T13:41:49;27.40;84.00
21799;DHT22;24973;47.178;15.316;2022-07-29T13:44:38;27.40;85.90
21799;DHT22;24973;47.178;15.316;2022-07-29T13:47:27;27.30;85.40
21799;DHT22;24973;47.178;15.316;2022-07-29T13:50:18;27.40;87.10
21799;DHT22;24973;47.178;15.316;2022-07-29T13:53:07;27.30;87.00
21799;DHT22;24973;47.178;15.316;2022-07-29T13:55:55;27.30;86.20
21799;DHT22;24973;47.178;15.316;2022-07-29T13:58:44;27.40;87.70
21799;DHT22;24973;47.178;15.316;2022-07-29T14:01:33;27.40;89.50
21799;DHT22;24973;47.178;15.316;2022-07-29T14:04:22;27.40;90.40
21799;DHT22;24973;47.178;15.316;2022-07-29T14:07:12;27.50;91.30
21799;DHT22;24973;47.178;15.316;2022-07-29T14:10:01;27.50;91.70
21799;DHT22;24973;47.178;15.316;2022-07-29T14:12:50;27.50;92.40
21799;DHT22;24973;47.178;15.316;2022-07-29T14:15:38;27.60;93.20
21799;DHT22;24973;47.178;15.316;2022-07-29T14:18:27;27.70;93.40
21799;DHT22;24973;47.178;15.316;2022-07-29T14:21:16;27.80;93.50
21799;DHT22;24973;47.178;15.316;2022-07-29T14:24:07;27.80;93.70
21799;DHT22;24973;47.178;15.316;2022-07-29T14:26:56;27.90;93.60
21799;DHT22;24973;47.178;15.316;2022-07-29T14:29:45;28.00;93.50
21799;DHT22;24973;47.178;15.316;2022-07-29T14:32:33;28.10;93.50
21799;DHT22;24973;47.178;15.316;2022-07-29T14:35:22;28.30;93.10
21799;DHT22;24973;47.178;15.316;2022-07-29T14:38:11;28.60;93.20
21799;DHT22;24973;47.178;15.316;2022-07-29T14:41:03;28.90;93.10
21799;DHT22;24973;47.178;15.316;2022-07-29T14:43:52;29.20;92.90
21799;DHT22;24973;47.178;15.316;2022-07-29T14:46:41;29.40;92.50
21799;DHT22;24973;47.178;15.316;2022-07-29T14:49:30;29.50;91.80
21799;DHT22;24973;47.178;15.316;2022-07-29T14:52:18;29.40;91.30
21799;DHT22;24973;47.178;15.316;2022-07-29T14:55:08;29.40;91.10
21799;DHT22;24973;47.178;15.316;2022-07-29T14:57:58;29.30;91.40
21799;DHT22;24973;47.178;15.316;2022-07-29T15:00:54;29.10;91.10
21799;DHT22;24973;47.178;15.316;2022-07-29T15:03:43;29.00;91.70
21799;DHT22;24973;47.178;15.316;2022-07-29T15:06:32;29.00;91.90
21799;DHT22;24973;47.178;15.316;2022-07-29T15:09:21;29.00;92.30
21799;DHT22;24973;47.178;15.316;2022-07-29T15:12:10;29.30;92.40
21799;DHT22;24973;47.178;15.316;2022-07-29T15:15:00;30.00;92.20
21799;DHT22;24973;47.178;15.316;2022-07-29T15:17:49;30.40;91.70
21799;DHT22;24973;47.178;15.316;2022-07-29T15:20:38;30.50;90.70
21799;DHT22;24973;47.178;15.316;2022-07-29T15:23:27;30.80;90.60
21799;DHT22;24973;47.178;15.316;2022-07-29T15:26:15;31.20;90.10
21799;DHT22;24973;47.178;15.316;2022-07-29T15:29:04;31.40;87.90
21799;DHT22;24973;47.178;15.316;2022-07-29T15:31:55;31.60;86.30
21799;DHT22;24973;47.178;15.316;2022-07-29T15:34:43;31.80;85.40
21799;DHT22;24973;47.178;15.316;2022-07-29T15:37:32;32.20;84.70
21799;DHT22;24973;47.178;15.316;2022-07-29T15:40:22;32.70;82.50
21799;DHT22;24973;47.178;15.316;2022-07-29T15:43:10;33.00;79.30
21799;DHT22;24973;47.178;15.316;2022-07-29T15:46:02;33.40;78.20
21799;DHT22;24973;47.178;15.316;2022-07-29T15:49:09;33.80;76.60
21799;DHT22;24973;47.178;15.316;2022-07-29T15:51:58;34.10;73.20
21799;DHT22;24973;47.178;15.316;2022-07-29T15:54:47;34.20;70.10
21799;DHT22;24973;47.178;15.316;2022-07-29T15:57:36;34.00;71.30
21799;DHT22;24973;47.178;15.316;2022-07-29T16:00:26;33.80;70.30
21799;DHT22;24973;47.178;15.316;2022-07-29T16:06:06;33.50;71.60
21799;DHT22;24973;47.178;15.316;2022-07-29T16:08:55;33.60;69.60
21799;DHT22;24973;47.178;15.316;2022-07-29T16:11:45;33.70;68.00
21799;DHT22;24973;47.178;15.316;2022-07-29T16:14:36;34.10;66.70
21799;DHT22;24973;47.178;15.316;2022-07-29T16:17:25;34.30;68.10
21799;DHT22;24973;47.178;15.316;2022-07-29T16:20:15;34.50;68.30
21799;DHT22;24973;47.178;15.316;2022-07-29T16:23:05;34.50;66.60
21799;DHT22;24973;47.178;15.316;2022-07-29T16:25:55;34.50;66.90
21799;DHT22;24973;47.178;15.316;2022-07-29T16:28:45;34.30;66.10
21799;DHT22;24973;47.178;15.316;2022-07-29T16:31:34;33.80;67.20
21799;DHT22;24973;47.178;15.316;2022-07-29T16:34:24;33.00;69.60
21799;DHT22;24973;47.178;15.316;2022-07-29T16:37:13;32.30;71.00
21799;DHT22;24973;47.178;15.316;2022-07-29T16:40:05;31.50;72.90
21799;DHT22;24973;47.178;15.316;2022-07-29T16:42:55;30.80;75.10
21799;DHT22;24973;47.178;15.316;2022-07-29T16:45:44;30.10;76.80
21799;DHT22;24973;47.178;15.316;2022-07-29T16:48:33;29.60;78.50
21799;DHT22;24973;47.178;15.316;2022-07-29T16:51:22;29.00;79.80
21799;DHT22;24973;47.178;15.316;2022-07-29T16:54:10;28.60;82.20
21799;DHT22;24973;47.178;15.316;2022-07-29T16:57:01;28.20;84.70
21799;DHT22;24973;47.178;15.316;2022-07-29T16:59:50;27.80;86.60
21799;DHT22;24973;47.178;15.316;2022-07-29T17:02:39;27.40;88.40
21799;DHT22;24973;47.178;15.316;2022-07-29T17:05:28;27.20;87.20
21799;DHT22;24973;47.178;15.316;2022-07-29T17:08:17;26.90;89.20
21799;DHT22;24973;47.178;15.316;2022-07-29T17:11:06;26.60;89.10
21799;DHT22;24973;47.178;15.316;2022-07-29T17:13:56;26.40;90.10
21799;DHT22;24973;47.178;15.316;2022-07-29T17:16:45;26.10;90.70
21799;DHT22;24973;47.178;15.316;2022-07-29T17:19:35;26.00;91.80
21799;DHT22;24973;47.178;15.316;2022-07-29T17:22:25;25.80;92.70
21799;DHT22;24973;47.178;15.316;2022-07-29T17:25:14;25.60;93.50
21799;DHT22;24973;47.178;15.316;2022-07-29T17:28:03;25.50;93.90
21799;DHT22;24973;47.178;15.316;2022-07-29T17:30:53;25.20;94.50
21799;DHT22;24973;47.178;15.316;2022-07-29T17:33:42;24.90;96.10
21799;DHT22;24973;47.178;15.316;2022-07-29T17:36:31;24.70;97.20
21799;DHT22;24973;47.178;15.316;2022-07-29T17:39:20;24.60;97.10
21799;DHT22;24973;47.178;15.316;2022-07-29T17:42:10;24.60;97.80
21799;DHT22;24973;47.178;15.316;2022-07-29T17:45:00;24.60;98.10
21799;DHT22;24973;47.178;15.316;2022-07-29T17:47:50;24.40;99.50
21799;DHT22;24973;47.178;15.316;2022-07-29T17:50:39;24.40;99.10
21799;DHT22;24973;47.178;15.316;2022-07-29T17:53:28;24.30;99.90
21799;DHT22;24973;47.178;15.316;2022-07-29T17:56:17;24.30;99.90
21799;DHT22;24973;47.178;15.316;2022-07-29T17:59:06;24.50;99.90
21799;DHT22;24973;47.178;15.316;2022-07-29T18:01:56;23.90;99.90
21799;DHT22;24973;47.178;15.316;2022-07-29T18:04:46;23.80;99.90
21799;DHT22;24973;47.178;15.316;2022-07-29T18:07:36;23.80;99.90
21799;DHT22;24973;47.178;15.316;2022-07-29T18:10:25;24.10;99.90
21799;DHT22;24973;47.178;15.316;2022-07-29T18:13:14;23.50;99.90
21799;DHT22;24973;47.178;15.316;2022-07-29T18:16:05;23.20;99.90
21799;DHT22;24973;47.178;15.316;2022-07-29T18:18:55;23.20;99.90
21799;DHT22;24973;47.178;15.316;2022-07-29T18:21:45;23.20;99.90
21799;DHT22;24973;47.178;15.316;2022-07-29T18:24:34;23.10;99.90